Flight Track Log - Related Links

Times and Time Zones

All times are in EDT time to prevent confusion due to time zone crossing. See the LXJ342 flight status page for this flight to view local times or setup timezone preferences in your user account.

Time Position Orientation Groundspeed Altitude Reporting Facility
EDT Latitude Longitude Course Direction KTS MPH feet Rate Location/Type
Thu 11:44:50 AM 32.8667 -96.8667 308° West 131 151 1,300  Level Dallas / Fort Worth TRACON
Thu 11:46:02 AM 32.9000 -96.9167 308° West 195 224 3,800 2,000 Climbing Dallas / Fort Worth TRACON
Thu 11:47:08 AM 32.9500 -96.9833 312° West 257 296 5,900 2,667 Climbing Dallas / Fort Worth TRACON
Thu 11:48:08 AM 32.9833 -97.0667 296° West 246 283 9,400 3,018 Climbing Dallas / Fort Worth TRACON
Thu 11:49:51 AM 33.0003 -97.1956 279° West 304 350 14,100 2,724 Climbing Fort Worth Center
Thu 11:50:51 AM 32.9961 -97.3019 267° West 291 335 16,800 2,250 Climbing Fort Worth Center
Thu 11:51:51 AM 32.9942 -97.3911 269° West 298 343 18,600 2,000 Climbing Fort Worth Center
Thu 11:52:51 AM 32.9900 -97.5050 268° West 312 359 20,800 2,050 Climbing Fort Worth Center
Thu 11:53:51 AM 32.9856 -97.6139 267° West 330 380 22,700 1,900 Climbing Fort Worth Center
Thu 11:54:51 AM 32.9811 -97.7106 267° West 330 380 24,600 2,000 Climbing Fort Worth Center
Thu 11:55:51 AM 32.9956 -97.8294 278° West 325 374 26,700 1,750 Climbing Fort Worth Center
Thu 11:56:51 AM 33.0097 -97.9239 280° West 330 380 28,100 1,250 Climbing Fort Worth Center
Thu 11:57:51 AM 33.0281 -98.0453 280° West 335 386 29,200 1,000 Climbing Fort Worth Center
Thu 11:58:51 AM 33.0442 -98.1519 280° West 351 404 30,100 1,000 Climbing Fort Worth Center
Thu 11:59:51 AM 33.0642 -98.2811 281° West 363 418 31,200 1,000 Climbing Fort Worth Center
Thu 12:00:51 PM 33.0842 -98.3978 282° West 363 418 32,100 900 Climbing Fort Worth Center
Thu 12:01:51 PM 33.1061 -98.5047 284° West 369 425 33,000 950 Climbing Fort Worth Center
Thu 12:02:51 PM 33.1156 -98.6214 276° West 369 425 34,000 950 Climbing Fort Worth Center
Thu 12:03:51 PM 33.1353 -98.7406 281° West 369 425 34,900 850 Climbing Fort Worth Center
Thu 12:04:51 PM 33.1506 -98.8600 279° West 369 425 35,700 750 Climbing Fort Worth Center
Thu 12:05:51 PM 33.1681 -98.9719 281° West 369 425 36,400 600 Climbing Fort Worth Center
Thu 12:06:51 PM 33.1853 -99.0889 280° West 369 425 36,900 500 Climbing Fort Worth Center
Thu 12:07:51 PM 33.2025 -99.2058 280° West 364 419 37,400 500 Climbing Fort Worth Center
Thu 12:08:51 PM 33.2197 -99.3181 280° West 358 412 37,900 300 Climbing Fort Worth Center
Thu 12:09:51 PM 33.2386 -99.4328 281° West 353 406 38,000 50 Climbing Fort Worth Center
Thu 12:10:51 PM 33.2578 -99.5497 281° West 353 406 38,000  Level Fort Worth Center
Thu 12:11:51 PM 33.3183 -99.6558 304° West 363 418 38,000  Level Fort Worth Center
Thu 12:12:51 PM 33.3875 -99.7544 310° West 375 432 38,000  Level Fort Worth Center
Thu 12:13:51 PM 33.4567 -99.8583 309° West 395 455 38,000  Level Fort Worth Center
Thu 12:14:51 PM 33.5275 -99.9600 310° West 400 460 38,000  Level Fort Worth Center
Thu 12:15:51 PM 33.5983 -100.0669 309° West 400 460 38,000  Level Fort Worth Center
Thu 12:16:51 PM 33.6692 -100.1764 308° West 405 466 38,000  Level Fort Worth Center
Thu 12:17:51 PM 33.7419 -100.2786 311° West 405 466 38,000  Level Fort Worth Center
Thu 12:18:51 PM 33.8042 -100.3856 305° West 400 460 38,000  Level Fort Worth Center
Thu 12:19:51 PM 33.8553 -100.5072 297° West 400 460 38,000  Level Fort Worth Center
Thu 12:20:51 PM 33.9089 -100.6244 299° West 400 460 38,000  Level Fort Worth Center
Thu 12:21:51 PM 33.9622 -100.7389 299° West 400 460 38,000  Level Fort Worth Center
Thu 12:22:51 PM 34.0131 -100.8586 297° West 400 460 38,000  Level Fort Worth Center
Thu 12:23:51 PM 34.0700 -100.9889 298° West 400 460 38,000  Level Fort Worth Center
Thu 12:24:51 PM 34.1172 -101.0911 299° West 400 460 38,000  Level Fort Worth Center
Thu 12:25:51 PM 34.1739 -101.2192 298° West 395 455 38,000  Level Fort Worth Center
Thu 12:26:51 PM 34.2206 -101.3267 298° West 398 458 38,000  Level Fort Worth Center
Thu 12:27:51 PM 34.2750 -101.4522 298° West 392 451 38,000  Level Fort Worth Center
Thu 12:29:38 PM 34.3581 -101.6456 298° West 396 456 38,000  Level Albuquerque Center
Thu 12:30:40 PM 34.4106 -101.7642 298° West 397 457 38,000  Level Albuquerque Center
Thu 12:31:42 PM 34.4714 -101.9072 297° West 398 458 38,000  Level Albuquerque Center
Thu 12:32:44 PM 34.5225 -102.0275 297° West 399 459 38,000  Level Albuquerque Center
Thu 12:33:46 PM 34.5742 -102.1464 298° West 398 458 38,000  Level Albuquerque Center
Thu 12:34:49 PM 34.6253 -102.2656 298° West 397 457 38,000  Level Albuquerque Center
Thu 12:35:51 PM 34.6750 -102.3806 298° West 388 447 38,000  Level Albuquerque Center
Thu 12:36:53 PM 34.7236 -102.4947 297° West 382 440 38,000  Level Albuquerque Center
Thu 12:37:55 PM 34.7706 -102.6089 297° West 379 436 38,000  Level Albuquerque Center
Thu 12:38:57 PM 34.8267 -102.7389 298° West 385 443 38,000  Level Albuquerque Center
Thu 12:39:59 PM 34.8764 -102.8581 297° West 390 449 38,000  Level Albuquerque Center
Thu 12:41:01 PM 34.9256 -102.9778 297° West 392 451 38,000  Level Albuquerque Center
Thu 12:42:03 PM 34.9842 -103.1186 297° West 395 455 38,000  Level Albuquerque Center
Thu 12:43:05 PM 35.0353 -103.2389 297° West 396 456 38,000  Level Albuquerque Center
Thu 12:44:07 PM 35.0858 -103.3600 297° West 397 457 38,000  Level Albuquerque Center
Thu 12:45:09 PM 35.1356 -103.4797 297° West 394 453 38,000  Level Albuquerque Center
Thu 12:46:11 PM 35.1844 -103.6000 296° West 393 452 38,000  Level Albuquerque Center
Thu 12:47:13 PM 35.2239 -103.7244 291° West 392 451 38,000  Level Albuquerque Center
Thu 12:48:15 PM 35.2692 -103.8683 291° West 387 445 38,000  Level Albuquerque Center
Thu 12:49:17 PM 35.3033 -103.9758 291° West 386 444 38,000  Level Albuquerque Center
Thu 12:50:19 PM 35.3456 -104.1106 291° West 382 440 38,000  Level Albuquerque Center
Thu 12:51:21 PM 35.3819 -104.2306 290° West 380 437 38,000  Level Albuquerque Center
Thu 12:52:24 PM 35.4192 -104.3511 291° West 379 436 38,000  Level Albuquerque Center
Thu 12:53:26 PM 35.4619 -104.4925 290° West 379 436 38,000  Level Albuquerque Center
Thu 12:54:28 PM 35.4994 -104.6150 291° West 380 437 38,000  Level Albuquerque Center
Thu 12:55:30 PM 35.5378 -104.7383 291° West 384 442 38,000  Level Albuquerque Center
Thu 12:57:34 PM 35.6136 -104.9911 290° West 393 452 38,000  Level Albuquerque Center
Thu 12:58:36 PM 35.6517 -105.1169 290° West 391 450 38,000  Level Albuquerque Center
Thu 12:59:39 PM 35.7058 -105.2592 295° West 391 450 38,000  Level Albuquerque Center
Thu 01:00:41 PM 35.7522 -105.3800 295° West 389 448 38,000  Level Albuquerque Center
Thu 01:01:43 PM 35.7989 -105.5000 296° West 386 444 38,000  Level Albuquerque Center
Thu 01:02:45 PM 35.8389 -105.6064 295° West 383 441 38,000  Level Albuquerque Center
Thu 01:03:47 PM 35.8936 -105.7464 296° West 380 437 38,000  Level Albuquerque Center
Thu 01:04:49 PM 35.9358 -105.8606 295° West 372 428 38,000  Level Albuquerque Center
Thu 01:05:51 PM 35.9794 -105.9753 295° West 370 426 38,000  Level Albuquerque Center
Thu 01:06:53 PM 36.0219 -106.0897 295° West 369 425 38,000  Level Albuquerque Center
Thu 01:07:55 PM 36.0658 -106.2053 295° West 371 427 38,000  Level Albuquerque Center
Thu 01:08:58 PM 36.1081 -106.3239 294° West 376 433 38,000  Level Albuquerque Center
Thu 01:10:00 PM 36.1619 -106.4658 295° West 379 436 38,000  Level Albuquerque Center
Thu 01:11:02 PM 36.2025 -106.5761 295° West 380 437 38,000  Level Albuquerque Center
Thu 01:12:04 PM 36.2508 -106.7100 294° West 382 440 38,000  Level Albuquerque Center
Thu 01:13:06 PM 36.2933 -106.8239 295° West 381 438 38,000  Level Albuquerque Center
Thu 01:14:08 PM 36.3422 -106.9578 294° West 381 438 38,000  Level Albuquerque Center
Thu 01:15:10 PM 36.3839 -107.0722 294° West 380 437 38,000  Level Albuquerque Center
Thu 01:15:46 PM 36.4117 -107.1489 294° West 383 441 38,000  Level Denver Center
Thu 01:16:48 PM 36.4594 -107.2822 294° West 381 438 38,000  Level Denver Center
Thu 01:17:50 PM 36.4994 -107.3958 294° West 378 435 38,000  Level Denver Center
Thu 01:18:53 PM 36.5475 -107.5306 294° West 382 440 38,000  Level Denver Center
Thu 01:19:55 PM 36.5872 -107.6447 293° West 379 436 38,000  Level Denver Center
Thu 01:20:57 PM 36.6361 -107.7783 295° West 380 437 38,000  Level Denver Center
Thu 01:21:59 PM 36.6764 -107.8944 293° West 382 440 38,000  Level Denver Center
Thu 01:23:01 PM 36.7169 -108.0086 294° West 380 437 38,000  Level Denver Center
Thu 01:24:03 PM 36.7650 -108.1447 294° West 382 440 38,000  Level Denver Center
Thu 01:25:05 PM 36.8058 -108.2594 294° West 379 436 38,000  Level Denver Center
Thu 01:26:07 PM 36.8542 -108.3972 294° West 387 445 38,000  Level Denver Center
Thu 01:27:09 PM 36.8953 -108.5150 294° West 389 448 38,000  Level Denver Center
Thu 01:28:11 PM 36.9433 -108.6494 294° West 383 441 38,000  Level Denver Center
Thu 01:29:13 PM 36.9842 -108.7678 293° West 386 444 38,000  Level Denver Center
Thu 01:30:15 PM 37.0303 -108.9019 293° West 382 440 38,000  Level Denver Center
Thu 01:31:17 PM 37.0642 -109.0211 290° West 380 437 38,000  Level Denver Center
Thu 01:32:19 PM 37.0983 -109.1644 287° West 383 441 38,000  Level Denver Center
Thu 01:33:21 PM 37.1289 -109.2881 287° West 387 445 38,000  Level Denver Center
Thu 01:34:23 PM 37.1642 -109.4314 287° West 387 445 38,000  Level Denver Center
Thu 01:35:25 PM 37.1936 -109.5572 286° West 392 451 38,000  Level Denver Center
Thu 01:36:27 PM 37.2297 -109.7025 287° West 392 451 38,000  Level Denver Center
Thu 01:37:29 PM 37.2589 -109.8250 287° West 387 445 38,000  Level Denver Center
Thu 01:38:32 PM 37.2911 -109.9706 286° West 388 447 38,000  Level Denver Center
Thu 01:39:34 PM 37.3117 -110.1003 281° West 396 456 38,000  Level Denver Center
Thu 01:40:36 PM 37.3464 -110.2303 289° West 385 443 38,000  Level Denver Center
Thu 01:41:38 PM 37.3733 -110.3603 285° West 389 448 38,000  Level Denver Center
Thu 01:42:40 PM 37.4036 -110.4878 287° West 378 435 38,000  Level Denver Center
Thu 01:43:42 PM 37.4447 -110.6394 289° West 382 440 38,000  Level Denver Center
Thu 01:44:44 PM 37.4761 -110.7653 287° West 379 436 38,000  Level Denver Center
Thu 01:45:46 PM 37.5069 -110.8933 287° West 381 438 38,000  Level Denver Center
Thu 01:46:48 PM 37.5364 -111.0197 286° West 378 435 38,000  Level Denver Center
Thu 01:47:50 PM 37.5658 -111.1464 286° West 377 434 38,000  Level Denver Center
Thu 01:48:52 PM 37.5942 -111.2719 286° West 375 432 38,000  Level Denver Center
Thu 01:49:54 PM 37.6281 -111.4225 286° West 375 432 38,000  Level Denver Center
Thu 01:50:56 PM 37.6558 -111.5492 286° West 375 432 38,000  Level Denver Center
Thu 01:51:58 PM 37.6850 -111.6764 286° West 378 435 38,000  Level Denver Center
Thu 01:53:00 PM 37.7128 -111.8025 286° West 377 434 38,000  Level Denver Center
Thu 01:54:11 PM 37.7472 -111.9564 286° West 379 436 38,000  Level Salt Lake Center
Thu 01:55:13 PM 37.7747 -112.0819 286° West 375 432 38,000  Level Salt Lake Center
Thu 01:56:15 PM 37.8017 -112.2086 285° West 375 432 38,000  Level Salt Lake Center
Thu 01:57:17 PM 37.8347 -112.3608 285° West 376 433 38,000  Level Salt Lake Center
Thu 01:58:19 PM 37.8622 -112.4875 285° West 377 434 38,000  Level Salt Lake Center
Thu 01:59:21 PM 37.8903 -112.6161 285° West 381 438 38,000  Level Salt Lake Center
Thu 02:00:22 PM 37.9169 -112.7464 285° West 385 443 38,000  Level Salt Lake Center
Thu 02:01:24 PM 37.9444 -112.8767 285° West 388 447 38,000  Level Salt Lake Center
Thu 02:02:26 PM 37.9761 -113.0328 284° West 386 444 38,000  Level Salt Lake Center
Thu 02:03:28 PM 38.0036 -113.1650 285° West 390 449 38,000  Level Salt Lake Center
Thu 02:04:30 PM 38.0311 -113.2975 285° West 391 450 38,000  Level Salt Lake Center
Thu 02:05:32 PM 38.0578 -113.4300 284° West 391 450 38,000  Level Salt Lake Center
Thu 02:06:33 PM 38.0858 -113.5636 285° West 393 452 38,000  Level Salt Lake Center
Thu 02:07:35 PM 38.1119 -113.6986 284° West 395 455 38,000  Level Salt Lake Center
Thu 02:08:37 PM 38.1461 -113.8589 285° West 393 452 38,000  Level Salt Lake Center
Thu 02:09:39 PM 38.1725 -113.9925 284° West 392 451 38,000  Level Salt Lake Center
Thu 02:10:40 PM 38.1989 -114.1278 284° West 395 455 38,000  Level Salt Lake Center
Thu 02:11:42 PM 38.2250 -114.2614 284° West 393 452 38,000  Level Salt Lake Center
Thu 02:12:44 PM 38.2483 -114.3953 283° West 390 449 38,000  Level Salt Lake Center
Thu 02:13:46 PM 38.2417 -114.5358 267° West 399 459 38,000  Level Salt Lake Center
Thu 02:14:48 PM 38.2311 -114.7075 266° West 406 467 38,000  Level Salt Lake Center
Thu 02:15:49 PM 38.2222 -114.8497 265° West 405 466 38,000  Level Salt Lake Center
Thu 02:16:51 PM 38.2147 -114.9911 266° West 402 463 38,000  Level Salt Lake Center
Thu 02:17:53 PM 38.2064 -115.1339 266° West 404 465 38,000  Level Salt Lake Center
Thu 02:18:55 PM 38.1956 -115.2767 265° West 406 467 38,000  Level Salt Lake Center
Thu 02:19:57 PM 38.1853 -115.4264 265° West 404 465 38,000  Level Salt Lake Center
Thu 02:20:59 PM 38.1761 -115.5686 265° West 404 465 38,000  Level Salt Lake Center
Thu 02:22:01 PM 38.1664 -115.7114 265° West 405 466 38,000  Level Salt Lake Center
Thu 02:23:02 PM 38.1558 -115.8542 265° West 405 466 38,000  Level Salt Lake Center
Thu 02:24:04 PM 38.1439 -116.0247 265° West 405 466 38,000  Level Salt Lake Center
Thu 02:25:06 PM 38.1333 -116.1678 265° West 407 468 38,000  Level Salt Lake Center
Thu 02:26:08 PM 38.1233 -116.3106 265° West 406 467 38,000  Level Salt Lake Center
Thu 02:26:52 PM 38.1147 -116.4253 265° West 408 470 38,000  Level Oakland Center
Thu 02:27:10 PM 38.1119 -116.4544 263° West 408 470 38,000  Level Salt Lake Center
Thu 02:28:11 PM 38.1014 -116.5978 265° West 407 468 38,000  Level Salt Lake Center
Thu 02:29:13 PM 38.0900 -116.7406 264° West 407 468 38,000  Level Salt Lake Center
Thu 02:30:15 PM 38.0789 -116.8850 264° West 409 471 38,000  Level Salt Lake Center
Thu 02:30:58 PM 38.0711 -116.9931 265° West 408 470 38,000  Level Oakland Center
Thu 02:32:00 PM 38.0569 -117.1464 263° West 409 471 38,000  Level Oakland Center
Thu 02:33:01 PM 38.0439 -117.2981 264° West 418 481 38,000  Level Oakland Center
Thu 02:34:02 PM 38.0325 -117.4433 264° West 412 474 38,000  Level Oakland Center
Thu 02:35:04 PM 38.0208 -117.5864 264° West 408 470 38,000  Level Oakland Center
Thu 02:36:05 PM 38.0083 -117.7314 264° West 410 472 38,000  Level Oakland Center
Thu 02:37:07 PM 37.9939 -117.8747 263° West 410 472 38,000  Level Oakland Center
Thu 02:38:08 PM 37.9786 -118.0192 262° West 413 475 38,000  Level Oakland Center
Thu 02:39:10 PM 37.9625 -118.1631 262° West 413 475 38,000  Level Oakland Center
Thu 02:40:11 PM 37.9439 -118.3369 262° West 414 476 38,000  Level Oakland Center
Thu 02:41:13 PM 37.9275 -118.4817 262° West 415 478 38,000  Level Oakland Center
Thu 02:42:14 PM 37.9111 -118.6250 262° West 412 474 38,000  Level Oakland Center
Thu 02:43:15 PM 37.8961 -118.7692 263° West 413 475 38,000  Level Oakland Center
Thu 02:44:17 PM 37.8800 -118.9125 262° West 411 473 38,000  Level Oakland Center
Thu 02:45:18 PM 37.8642 -119.0439 261° West 411 473 38,000  Level Oakland Center
Thu 02:46:20 PM 37.8447 -119.2161 262° West 411 473 38,000  Level Oakland Center
Thu 02:47:21 PM 37.8275 -119.3581 261° West 409 471 38,000  Level Oakland Center
Thu 02:48:23 PM 37.8108 -119.5011 262° West 410 472 38,000  Level Oakland Center
Thu 02:49:24 PM 37.7936 -119.6433 261° West 410 472 38,000  Level Oakland Center
Thu 02:50:26 PM 37.7761 -119.7867 261° West 412 474 38,000 -488 Level Oakland Center
Thu 02:51:27 PM 37.7589 -119.9306 261° West 413 475 37,000 -1,623 Descending Oakland Center
Thu 02:52:28 PM 37.7403 -120.0792 261° West 424 488 34,700 -2,244 Descending Oakland Center
Thu 02:53:30 PM 37.7228 -120.2225 261° West 417 480 32,400 -2,195 Descending Oakland Center
Thu 02:54:31 PM 37.7033 -120.3700 261° West 423 487 30,200 -2,195 Descending Oakland Center
Thu 02:55:33 PM 37.6850 -120.5178 261° West 424 488 27,900 -2,486 Descending Oakland Center
Thu 02:56:22 PM 37.6667 -120.6667 261° West 418 481 25,600 -2,389 Descending Northern Cal TRACON
Thu 02:57:21 PM 37.6500 -120.8000 261° West 413 475 23,600 -2,100 Descending Northern Cal TRACON
Thu 02:58:22 PM 37.6333 -120.9500 262° West 417 480 21,400 -2,182 Descending Northern Cal TRACON
Thu 02:59:22 PM 37.6167 -121.0833 261° West 405 466 19,200 -2,100 Descending Northern Cal TRACON
Thu 03:00:22 PM 37.6000 -121.2167 261° West 392 451 17,200 -2,050 Descending Northern Cal TRACON
Thu 03:01:22 PM 37.5833 -121.3500 261° West 378 435 15,100 -1,950 Descending Northern Cal TRACON
Thu 03:02:22 PM 37.5667 -121.4667 260° West 340 391 13,300 -1,750 Descending Northern Cal TRACON
Thu 03:03:22 PM 37.5500 -121.5833 260° West 313 360 11,600 -1,200 Descending Northern Cal TRACON
Thu 03:04:22 PM 37.5333 -121.6833 258° West 274 315 10,900 -950 Descending Northern Cal TRACON
Thu 03:05:22 PM 37.5167 -121.7667 256° West 251 289 9,700 -1,350 Descending Northern Cal TRACON
Thu 03:06:22 PM 37.5000 -121.8500 256° West 234 269 8,200 -1,000 Descending Northern Cal TRACON
Thu 03:07:22 PM 37.5000 -121.9167 270° West 233 268 7,700 -650 Descending Northern Cal TRACON
Thu 03:08:22 PM 37.5167 -121.9833 288° West 195 224 6,900 -895 Descending Northern Cal TRACON
Thu 03:09:16 PM 37.5333 -122.0500 288° West 189 217 6,000 -1,105 Descending Northern Cal TRACON
Thu 03:10:16 PM 37.5333 -122.1000 270° West 178 205 4,800 -1,212 Descending Northern Cal TRACON
Thu 03:10:55 PM 37.5400 -122.1383 282° West 181 208 4,000 -1,248 Descending Oakland Center
Thu 03:11:57 PM 37.5558 -122.1969 289° West 177 204 2,700 -1,073 Descending Oakland Center
Thu 03:12:58 PM 37.5722 -122.2522 291° West 174 200 1,800 -780 Descending Oakland Center
Thu 03:14:00 PM 37.5886 -122.3053 291° West 168 193 1,100 -677 Descending Oakland Center
Thu 03:17:00 PM 37.6167 -122.3667 322° Northwest  Level FlightAware Approximate

Login

Don't have an account? Register now (free) for customized features, flight alerts, and more!